< < Back
Terminal Aerodrome Forecast


Current Version              Previous Versions:   1  2  3  4  5  6  7  8  9  

Terminal Aerodrome Forecast

201
FTUS42 KGSP 291135
TAFAVL
TAF
KAVL 291135Z 2912/3012 00000KT 6SM BR SCT005 BKN020 OVC060
      TEMPO 2912/2914 3SM BR OVC005
     FM291500 15003KT P6SM BKN040
     FM292100 13003KT P6SM BKN045 PROB30 2921/2923 4SM TSRA BKN040CB
     FM292300 00000KT P6SM BKN040=

Latest METAR

019
SAUS70 KWBC 292000 RRA
MTRAVL
METAR KAVL 291954Z 19010KT 10SM FEW038 24/15 A3025 RMK AO2 SLP220
T02440150


USA.gov is the U.S. government's official web portal to all federal, state and local government web resources and services.